sensor_id;sensor_type;location;lat;lon;timestamp;P1;durP1;ratioP1;P2;durP2;ratioP2
64452;SDS011;50813;52.654;6.766;2023-03-01T00:02:49;17.41;;;13.9;;
64452;SDS011;50813;52.654;6.766;2023-03-01T00:04:26;19.3;;;14.4;;
64452;SDS011;50813;52.654;6.766;2023-03-01T00:06:03;16.0;;;13.1;;
64452;SDS011;50813;52.654;6.766;2023-03-01T00:09:16;16.0;;;13.1;;
64452;SDS011;50813;52.654;6.766;2023-03-01T00:11:01;18.61;;;14.7;;
64452;SDS011;50813;52.654;6.766;2023-03-01T00:12:39;19.2;;;16.0;;
64452;SDS011;50813;52.654;6.766;2023-03-01T00:14:15;19.41;;;16.3;;
64452;SDS011;50813;52.654;6.766;2023-03-01T00:17:28;23.6;;;17.3;;
64452;SDS011;50813;52.654;6.766;2023-03-01T00:19:04;20.5;;;16.4;;
64452;SDS011;50813;52.654;6.766;2023-03-01T00:20:41;25.6;;;18.41;;
64452;SDS011;50813;52.654;6.766;2023-03-01T00:23:54;23.1;;;16.9;;
64452;SDS011;50813;52.654;6.766;2023-03-01T00:25:30;22.0;;;17.91;;
64452;SDS011;50813;52.654;6.766;2023-03-01T00:27:07;23.9;;;18.3;;
64452;SDS011;50813;52.654;6.766;2023-03-01T00:30:20;27.9;;;20.6;;
64452;SDS011;50813;52.654;6.766;2023-03-01T00:31:56;29.2;;;22.1;;
64452;SDS011;50813;52.654;6.766;2023-03-01T00:33:32;29.2;;;22.9;;
64452;SDS011;50813;52.654;6.766;2023-03-01T00:35:09;30.1;;;22.8;;
64452;SDS011;50813;52.654;6.766;2023-03-01T00:38:22;33.0;;;25.1;;
64452;SDS011;50813;52.654;6.766;2023-03-01T00:39:58;30.0;;;23.5;;
64452;SDS011;50813;52.654;6.766;2023-03-01T00:41:34;29.9;;;24.3;;
64452;SDS011;50813;52.654;6.766;2023-03-01T00:44:46;35.0;;;25.9;;
64452;SDS011;50813;52.654;6.766;2023-03-01T00:46:23;29.9;;;24.0;;
64452;SDS011;50813;52.654;6.766;2023-03-01T00:48:02;34.1;;;25.3;;
64452;SDS011;50813;52.654;6.766;2023-03-01T00:51:15;33.0;;;24.6;;
64452;SDS011;50813;52.654;6.766;2023-03-01T00:52:53;36.1;;;25.6;;
64452;SDS011;50813;52.654;6.766;2023-03-01T00:54:30;32.0;;;23.8;;
64452;SDS011;50813;52.654;6.766;2023-03-01T00:56:08;31.7;;;24.7;;
64452;SDS011;50813;52.654;6.766;2023-03-01T00:59:21;32.0;;;24.5;;
64452;SDS011;50813;52.654;6.766;2023-03-01T01:00:58;38.1;;;27.2;;
64452;SDS011;50813;52.654;6.766;2023-03-01T01:02:34;34.6;;;25.8;;
64452;SDS011;50813;52.654;6.766;2023-03-01T01:05:49;31.8;;;24.6;;
64452;SDS011;50813;52.654;6.766;2023-03-01T01:07:25;33.6;;;24.3;;
64452;SDS011;50813;52.654;6.766;2023-03-01T01:09:02;27.2;;;20.7;;
64452;SDS011;50813;52.654;6.766;2023-03-01T01:10:42;31.7;;;23.1;;
64452;SDS011;50813;52.654;6.766;2023-03-01T01:13:56;25.8;;;21.4;;
64452;SDS011;50813;52.654;6.766;2023-03-01T01:15:33;30.9;;;20.7;;
64452;SDS011;50813;52.654;6.766;2023-03-01T01:17:10;32.5;;;23.6;;
64452;SDS011;50813;52.654;6.766;2023-03-01T01:20:22;26.7;;;20.6;;
64452;SDS011;50813;52.654;6.766;2023-03-01T01:21:58;31.9;;;23.8;;
64452;SDS011;50813;52.654;6.766;2023-03-01T01:23:35;32.9;;;24.6;;
64452;SDS011;50813;52.654;6.766;2023-03-01T01:26:48;33.8;;;24.6;;
64452;SDS011;50813;52.654;6.766;2023-03-01T01:28:25;29.4;;;22.4;;
64452;SDS011;50813;52.654;6.766;2023-03-01T01:30:01;33.4;;;24.1;;
64452;SDS011;50813;52.654;6.766;2023-03-01T01:31:39;33.8;;;25.3;;
64452;SDS011;50813;52.654;6.766;2023-03-01T01:34:53;28.0;;;22.2;;
64452;SDS011;50813;52.654;6.766;2023-03-01T01:36:30;33.1;;;24.3;;
64452;SDS011;50813;52.654;6.766;2023-03-01T01:38:09;27.2;;;21.5;;
64452;SDS011;50813;52.654;6.766;2023-03-01T01:41:21;23.9;;;19.0;;
64452;SDS011;50813;52.654;6.766;2023-03-01T01:42:59;30.7;;;22.8;;
64452;SDS011;50813;52.654;6.766;2023-03-01T01:44:35;32.8;;;23.8;;
64452;SDS011;50813;52.654;6.766;2023-03-01T01:47:58;27.2;;;21.5;;
64452;SDS011;50813;52.654;6.766;2023-03-01T01:49:40;32.3;;;25.3;;
64452;SDS011;50813;52.654;6.766;2023-03-01T01:51:23;29.8;;;21.0;;
64452;SDS011;50813;52.654;6.766;2023-03-01T01:53:01;26.8;;;20.5;;
64452;SDS011;50813;52.654;6.766;2023-03-01T01:54:39;25.3;;;20.3;;
64452;SDS011;50813;52.654;6.766;2023-03-01T01:58:02;24.6;;;19.41;;
64452;SDS011;50813;52.654;6.766;2023-03-01T01:59:43;24.1;;;18.8;;
64452;SDS011;50813;52.654;6.766;2023-03-01T02:01:25;30.5;;;22.5;;
64452;SDS011;50813;52.654;6.766;2023-03-01T02:03:03;28.6;;;21.4;;
64452;SDS011;50813;52.654;6.766;2023-03-01T02:06:24;30.8;;;23.3;;
64452;SDS011;50813;52.654;6.766;2023-03-01T02:08:05;36.1;;;24.4;;
64452;SDS011;50813;52.654;6.766;2023-03-01T02:09:45;30.6;;;24.0;;
64452;SDS011;50813;52.654;6.766;2023-03-01T02:11:24;32.3;;;24.2;;
64452;SDS011;50813;52.654;6.766;2023-03-01T02:14:40;34.31;;;25.3;;
64452;SDS011;50813;52.654;6.766;2023-03-01T02:16:16;33.6;;;24.8;;
64452;SDS011;50813;52.654;6.766;2023-03-01T02:17:53;39.5;;;28.6;;
64452;SDS011;50813;52.654;6.766;2023-03-01T02:21:37;38.81;;;27.4;;
64452;SDS011;50813;52.654;6.766;2023-03-01T02:23:25;40.0;;;27.7;;
64452;SDS011;50813;52.654;6.766;2023-03-01T02:25:05;35.5;;;26.4;;
64452;SDS011;50813;52.654;6.766;2023-03-01T02:26:51;37.4;;;28.1;;
64452;SDS011;50813;52.654;6.766;2023-03-01T02:28:31;40.21;;;28.9;;
64452;SDS011;50813;52.654;6.766;2023-03-01T02:30:10;38.6;;;28.2;;
64452;SDS011;50813;52.654;6.766;2023-03-01T02:33:24;36.5;;;26.9;;
64452;SDS011;50813;52.654;6.766;2023-03-01T02:35:02;40.71;;;29.2;;
64452;SDS011;50813;52.654;6.766;2023-03-01T02:36:39;38.1;;;28.3;;
64452;SDS011;50813;52.654;6.766;2023-03-01T02:39:57;31.0;;;23.4;;
64452;SDS011;50813;52.654;6.766;2023-03-01T02:41:37;35.1;;;24.1;;
64452;SDS011;50813;52.654;6.766;2023-03-01T02:43:17;23.1;;;19.11;;
64452;SDS011;50813;52.654;6.766;2023-03-01T02:44:57;32.21;;;23.7;;
64452;SDS011;50813;52.654;6.766;2023-03-01T02:48:18;31.3;;;23.5;;
64452;SDS011;50813;52.654;6.766;2023-03-01T02:49:55;34.0;;;25.7;;
64452;SDS011;50813;52.654;6.766;2023-03-01T02:51:35;33.6;;;24.1;;
64452;SDS011;50813;52.654;6.766;2023-03-01T02:53:25;31.6;;;23.0;;
64452;SDS011;50813;52.654;6.766;2023-03-01T02:56:50;28.2;;;21.6;;
64452;SDS011;50813;52.654;6.766;2023-03-01T02:58:27;33.21;;;23.5;;
64452;SDS011;50813;52.654;6.766;2023-03-01T03:00:04;24.5;;;20.3;;
64452;SDS011;50813;52.654;6.766;2023-03-01T03:01:44;28.8;;;22.9;;
64452;SDS011;50813;52.654;6.766;2023-03-01T03:04:57;29.4;;;21.9;;
64452;SDS011;50813;52.654;6.766;2023-03-01T03:06:33;29.6;;;23.0;;
64452;SDS011;50813;52.654;6.766;2023-03-01T03:11:22;28.3;;;22.1;;
64452;SDS011;50813;52.654;6.766;2023-03-01T03:12:59;28.6;;;21.9;;
64452;SDS011;50813;52.654;6.766;2023-03-01T03:14:37;33.0;;;23.7;;
64452;SDS011;50813;52.654;6.766;2023-03-01T03:16:13;33.1;;;25.4;;
64452;SDS011;50813;52.654;6.766;2023-03-01T03:19:28;31.4;;;23.0;;
64452;SDS011;50813;52.654;6.766;2023-03-01T03:21:06;32.4;;;24.5;;
64452;SDS011;50813;52.654;6.766;2023-03-01T03:22:43;32.8;;;24.4;;
64452;SDS011;50813;52.654;6.766;2023-03-01T03:25:55;37.1;;;24.6;;
64452;SDS011;50813;52.654;6.766;2023-03-01T03:27:31;31.8;;;22.7;;
64452;SDS011;50813;52.654;6.766;2023-03-01T03:29:08;32.21;;;23.9;;
64452;SDS011;50813;52.654;6.766;2023-03-01T03:32:20;31.4;;;24.1;;
64452;SDS011;50813;52.654;6.766;2023-03-01T03:33:56;33.1;;;25.2;;
64452;SDS011;50813;52.654;6.766;2023-03-01T03:35:34;33.0;;;24.8;;
64452;SDS011;50813;52.654;6.766;2023-03-01T03:37:15;29.3;;;23.1;;
64452;SDS011;50813;52.654;6.766;2023-03-01T03:40:28;35.31;;;24.3;;
64452;SDS011;50813;52.654;6.766;2023-03-01T03:42:08;26.8;;;21.9;;
64452;SDS011;50813;52.654;6.766;2023-03-01T03:43:44;29.2;;;22.1;;
64452;SDS011;50813;52.654;6.766;2023-03-01T03:46:56;28.4;;;21.0;;
64452;SDS011;50813;52.654;6.766;2023-03-01T03:48:33;28.2;;;22.0;;
64452;SDS011;50813;52.654;6.766;2023-03-01T03:50:10;27.0;;;21.3;;
64452;SDS011;50813;52.654;6.766;2023-03-01T03:51:48;26.1;;;20.6;;
64452;SDS011;50813;52.654;6.766;2023-03-01T03:55:03;28.1;;;21.8;;
64452;SDS011;50813;52.654;6.766;2023-03-01T03:56:40;24.9;;;20.9;;
64452;SDS011;50813;52.654;6.766;2023-03-01T03:58:17;25.4;;;20.41;;
64452;SDS011;50813;52.654;6.766;2023-03-01T04:01:30;27.2;;;21.1;;
64452;SDS011;50813;52.654;6.766;2023-03-01T04:03:07;29.4;;;22.5;;
64452;SDS011;50813;52.654;6.766;2023-03-01T04:04:45;29.0;;;21.8;;
64452;SDS011;50813;52.654;6.766;2023-03-01T04:07:58;28.1;;;20.7;;
64452;SDS011;50813;52.654;6.766;2023-03-01T04:09:35;25.8;;;21.2;;
64452;SDS011;50813;52.654;6.766;2023-03-01T04:11:11;26.0;;;21.0;;
64452;SDS011;50813;52.654;6.766;2023-03-01T04:12:49;27.9;;;21.0;;
64452;SDS011;50813;52.654;6.766;2023-03-01T04:16:01;24.5;;;20.0;;
64452;SDS011;50813;52.654;6.766;2023-03-01T04:17:37;25.4;;;20.2;;
64452;SDS011;50813;52.654;6.766;2023-03-01T04:19:13;26.4;;;19.7;;
64452;SDS011;50813;52.654;6.766;2023-03-01T04:22:26;20.7;;;18.3;;
64452;SDS011;50813;52.654;6.766;2023-03-01T04:24:03;21.3;;;17.7;;
64452;SDS011;50813;52.654;6.766;2023-03-01T04:25:40;23.3;;;18.61;;
64452;SDS011;50813;52.654;6.766;2023-03-01T04:27:17;22.8;;;18.2;;
64452;SDS011;50813;52.654;6.766;2023-03-01T04:30:30;19.61;;;17.41;;
64452;SDS011;50813;52.654;6.766;2023-03-01T04:32:06;23.0;;;17.2;;
64452;SDS011;50813;52.654;6.766;2023-03-01T04:33:43;20.5;;;17.5;;
64452;SDS011;50813;52.654;6.766;2023-03-01T04:36:56;25.0;;;19.5;;
64452;SDS011;50813;52.654;6.766;2023-03-01T04:38:32;23.1;;;18.8;;
64452;SDS011;50813;52.654;6.766;2023-03-01T04:40:09;22.3;;;18.2;;
64452;SDS011;50813;52.654;6.766;2023-03-01T04:43:23;21.9;;;18.3;;
64452;SDS011;50813;52.654;6.766;2023-03-01T04:44:59;24.2;;;18.91;;
64452;SDS011;50813;52.654;6.766;2023-03-01T04:46:35;25.5;;;19.8;;
64452;SDS011;50813;52.654;6.766;2023-03-01T04:48:12;20.9;;;17.61;;
64452;SDS011;50813;52.654;6.766;2023-03-01T04:51:25;24.8;;;19.11;;
64452;SDS011;50813;52.654;6.766;2023-03-01T04:53:01;23.7;;;19.11;;
64452;SDS011;50813;52.654;6.766;2023-03-01T04:54:38;25.1;;;20.5;;
64452;SDS011;50813;52.654;6.766;2023-03-01T04:57:51;25.5;;;20.5;;
64452;SDS011;50813;52.654;6.766;2023-03-01T04:59:29;22.4;;;18.7;;
64452;SDS011;50813;52.654;6.766;2023-03-01T05:01:09;22.9;;;20.0;;
64452;SDS011;50813;52.654;6.766;2023-03-01T05:04:24;22.3;;;18.91;;
64452;SDS011;50813;52.654;6.766;2023-03-01T05:06:00;23.7;;;19.41;;
64452;SDS011;50813;52.654;6.766;2023-03-01T05:07:36;22.3;;;19.41;;
64452;SDS011;50813;52.654;6.766;2023-03-01T05:09:12;24.1;;;19.2;;
64452;SDS011;50813;52.654;6.766;2023-03-01T05:12:28;26.5;;;21.0;;
64452;SDS011;50813;52.654;6.766;2023-03-01T05:14:04;24.9;;;20.6;;
64452;SDS011;50813;52.654;6.766;2023-03-01T05:15:42;26.2;;;20.5;;
64452;SDS011;50813;52.654;6.766;2023-03-01T05:18:54;29.4;;;22.7;;
64452;SDS011;50813;52.654;6.766;2023-03-01T05:20:30;28.4;;;21.8;;
64452;SDS011;50813;52.654;6.766;2023-03-01T05:22:06;29.7;;;22.8;;
64452;SDS011;50813;52.654;6.766;2023-03-01T05:25:20;29.1;;;23.3;;
64452;SDS011;50813;52.654;6.766;2023-03-01T05:26:57;30.8;;;23.8;;
64452;SDS011;50813;52.654;6.766;2023-03-01T05:28:34;31.9;;;24.0;;
64452;SDS011;50813;52.654;6.766;2023-03-01T05:30:12;32.9;;;24.9;;
64452;SDS011;50813;52.654;6.766;2023-03-01T05:33:25;33.71;;;23.9;;
64452;SDS011;50813;52.654;6.766;2023-03-01T05:35:03;34.9;;;25.4;;
64452;SDS011;50813;52.654;6.766;2023-03-01T05:36:40;33.4;;;24.4;;
64452;SDS011;50813;52.654;6.766;2023-03-01T05:39:52;31.7;;;22.8;;
64452;SDS011;50813;52.654;6.766;2023-03-01T05:41:28;30.6;;;23.2;;
64452;SDS011;50813;52.654;6.766;2023-03-01T05:43:04;30.5;;;24.4;;
64452;SDS011;50813;52.654;6.766;2023-03-01T05:44:41;28.7;;;23.2;;
64452;SDS011;50813;52.654;6.766;2023-03-01T05:47:54;30.0;;;23.5;;
64452;SDS011;50813;52.654;6.766;2023-03-01T05:49:31;31.1;;;24.0;;
64452;SDS011;50813;52.654;6.766;2023-03-01T05:51:07;30.4;;;23.6;;
64452;SDS011;50813;52.654;6.766;2023-03-01T05:54:21;29.7;;;22.9;;
64452;SDS011;50813;52.654;6.766;2023-03-01T05:55:59;31.8;;;23.2;;
64452;SDS011;50813;52.654;6.766;2023-03-01T05:57:35;26.9;;;22.1;;
64452;SDS011;50813;52.654;6.766;2023-03-01T06:00:47;29.7;;;22.4;;
64452;SDS011;50813;52.654;6.766;2023-03-01T06:02:24;31.6;;;22.2;;
64452;SDS011;50813;52.654;6.766;2023-03-01T06:04:00;30.7;;;22.8;;
64452;SDS011;50813;52.654;6.766;2023-03-01T06:05:37;28.9;;;22.0;;
64452;SDS011;50813;52.654;6.766;2023-03-01T06:08:51;26.4;;;21.3;;
64452;SDS011;50813;52.654;6.766;2023-03-01T06:10:28;27.3;;;21.5;;
64452;SDS011;50813;52.654;6.766;2023-03-01T06:12:05;23.6;;;20.11;;
64452;SDS011;50813;52.654;6.766;2023-03-01T06:15:20;25.2;;;19.2;;
64452;SDS011;50813;52.654;6.766;2023-03-01T06:16:57;22.2;;;18.61;;
64452;SDS011;50813;52.654;6.766;2023-03-01T06:18:34;25.9;;;19.5;;
64452;SDS011;50813;52.654;6.766;2023-03-01T06:21:50;22.1;;;19.3;;
64452;SDS011;50813;52.654;6.766;2023-03-01T06:23:26;24.1;;;19.5;;
64452;SDS011;50813;52.654;6.766;2023-03-01T06:25:03;25.1;;;20.41;;
64452;SDS011;50813;52.654;6.766;2023-03-01T06:26:40;26.6;;;21.2;;
64452;SDS011;50813;52.654;6.766;2023-03-01T06:29:53;27.4;;;21.2;;
64452;SDS011;50813;52.654;6.766;2023-03-01T06:31:29;25.5;;;21.8;;
64452;SDS011;50813;52.654;6.766;2023-03-01T06:33:05;30.5;;;22.8;;
64452;SDS011;50813;52.654;6.766;2023-03-01T06:36:17;31.1;;;22.8;;
64452;SDS011;50813;52.654;6.766;2023-03-01T06:37:53;30.1;;;23.0;;
64452;SDS011;50813;52.654;6.766;2023-03-01T06:39:30;27.3;;;22.2;;
64452;SDS011;50813;52.654;6.766;2023-03-01T06:42:43;28.2;;;22.5;;
64452;SDS011;50813;52.654;6.766;2023-03-01T06:44:25;27.2;;;21.7;;
64452;SDS011;50813;52.654;6.766;2023-03-01T06:46:03;28.0;;;21.8;;
64452;SDS011;50813;52.654;6.766;2023-03-01T06:47:40;28.8;;;22.3;;
64452;SDS011;50813;52.654;6.766;2023-03-01T06:50:52;27.3;;;21.3;;
64452;SDS011;50813;52.654;6.766;2023-03-01T06:52:30;28.6;;;22.0;;
64452;SDS011;50813;52.654;6.766;2023-03-01T06:54:07;26.2;;;20.5;;
64452;SDS011;50813;52.654;6.766;2023-03-01T06:57:19;25.8;;;20.8;;
64452;SDS011;50813;52.654;6.766;2023-03-01T06:58:55;23.9;;;20.3;;
64452;SDS011;50813;52.654;6.766;2023-03-01T07:00:31;26.7;;;21.2;;
64452;SDS011;50813;52.654;6.766;2023-03-01T07:02:09;29.1;;;21.0;;
64452;SDS011;50813;52.654;6.766;2023-03-01T07:05:23;25.5;;;20.41;;
64452;SDS011;50813;52.654;6.766;2023-03-01T07:06:59;27.7;;;22.3;;
64452;SDS011;50813;52.654;6.766;2023-03-01T07:08:35;27.5;;;20.8;;
64452;SDS011;50813;52.654;6.766;2023-03-01T07:11:48;25.0;;;21.0;;
64452;SDS011;50813;52.654;6.766;2023-03-01T07:13:25;26.0;;;21.4;;
64452;SDS011;50813;52.654;6.766;2023-03-01T07:15:03;26.9;;;22.3;;
64452;SDS011;50813;52.654;6.766;2023-03-01T07:18:16;26.3;;;21.1;;
64452;SDS011;50813;52.654;6.766;2023-03-01T07:19:52;24.0;;;18.61;;
64452;SDS011;50813;52.654;6.766;2023-03-01T07:21:29;30.0;;;22.5;;
64452;SDS011;50813;52.654;6.766;2023-03-01T07:23:05;25.4;;;20.8;;
64452;SDS011;50813;52.654;6.766;2023-03-01T07:26:19;28.5;;;21.7;;
64452;SDS011;50813;52.654;6.766;2023-03-01T07:27:55;26.9;;;21.4;;
64452;SDS011;50813;52.654;6.766;2023-03-01T07:29:31;33.4;;;24.9;;
64452;SDS011;50813;52.654;6.766;2023-03-01T07:32:44;28.8;;;23.2;;
64452;SDS011;50813;52.654;6.766;2023-03-01T07:34:20;26.2;;;21.3;;
64452;SDS011;50813;52.654;6.766;2023-03-01T07:35:56;28.1;;;22.7;;
64452;SDS011;50813;52.654;6.766;2023-03-01T07:39:09;31.4;;;23.9;;
64452;SDS011;50813;52.654;6.766;2023-03-01T07:40:46;33.71;;;24.0;;
64452;SDS011;50813;52.654;6.766;2023-03-01T07:42:23;31.8;;;24.1;;
64452;SDS011;50813;52.654;6.766;2023-03-01T07:43:59;29.8;;;23.3;;
64452;SDS011;50813;52.654;6.766;2023-03-01T07:47:11;29.4;;;23.3;;
64452;SDS011;50813;52.654;6.766;2023-03-01T07:48:47;31.6;;;24.7;;
64452;SDS011;50813;52.654;6.766;2023-03-01T07:50:23;26.6;;;22.2;;
64452;SDS011;50813;52.654;6.766;2023-03-01T07:53:36;26.2;;;21.8;;
64452;SDS011;50813;52.654;6.766;2023-03-01T07:55:13;28.0;;;21.8;;
64452;SDS011;50813;52.654;6.766;2023-03-01T07:56:50;27.2;;;22.5;;
64452;SDS011;50813;52.654;6.766;2023-03-01T08:00:03;29.2;;;21.9;;
64452;SDS011;50813;52.654;6.766;2023-03-01T08:01:40;26.2;;;21.6;;
64452;SDS011;50813;52.654;6.766;2023-03-01T08:03:17;26.0;;;22.2;;
64452;SDS011;50813;52.654;6.766;2023-03-01T08:04:53;31.0;;;23.3;;
64452;SDS011;50813;52.654;6.766;2023-03-01T08:08:05;27.0;;;21.3;;
64452;SDS011;50813;52.654;6.766;2023-03-01T08:09:41;30.7;;;22.3;;
64452;SDS011;50813;52.654;6.766;2023-03-01T08:11:18;25.8;;;21.5;;
64452;SDS011;50813;52.654;6.766;2023-03-01T08:14:30;27.5;;;21.2;;
64452;SDS011;50813;52.654;6.766;2023-03-01T08:16:07;29.5;;;21.9;;
64452;SDS011;50813;52.654;6.766;2023-03-01T08:17:45;25.1;;;21.0;;
64452;SDS011;50813;52.654;6.766;2023-03-01T08:21:02;26.0;;;21.0;;
64452;SDS011;50813;52.654;6.766;2023-03-01T08:22:40;23.2;;;19.41;;
64452;SDS011;50813;52.654;6.766;2023-03-01T08:24:16;23.7;;;19.7;;
64452;SDS011;50813;52.654;6.766;2023-03-01T08:25:52;23.1;;;19.5;;
64452;SDS011;50813;52.654;6.766;2023-03-01T08:29:04;24.2;;;19.0;;
64452;SDS011;50813;52.654;6.766;2023-03-01T08:30:40;23.5;;;18.41;;
64452;SDS011;50813;52.654;6.766;2023-03-01T08:32:17;22.9;;;18.11;;
64452;SDS011;50813;52.654;6.766;2023-03-01T08:35:33;23.2;;;17.11;;
64452;SDS011;50813;52.654;6.766;2023-03-01T08:37:09;21.0;;;17.11;;
64452;SDS011;50813;52.654;6.766;2023-03-01T08:38:45;23.0;;;18.5;;
64452;SDS011;50813;52.654;6.766;2023-03-01T08:41:58;23.5;;;17.41;;
64452;SDS011;50813;52.654;6.766;2023-03-01T08:43:34;24.8;;;18.0;;
64452;SDS011;50813;52.654;6.766;2023-03-01T08:45:10;19.61;;;16.3;;
64452;SDS011;50813;52.654;6.766;2023-03-01T08:46:47;19.2;;;16.61;;
64452;SDS011;50813;52.654;6.766;2023-03-01T08:50:00;21.0;;;16.4;;
64452;SDS011;50813;52.654;6.766;2023-03-01T08:51:38;18.5;;;16.2;;
64452;SDS011;50813;52.654;6.766;2023-03-01T08:53:15;19.61;;;16.61;;
64452;SDS011;50813;52.654;6.766;2023-03-01T08:56:27;20.9;;;15.9;;
64452;SDS011;50813;52.654;6.766;2023-03-01T08:58:03;21.4;;;15.7;;
64452;SDS011;50813;52.654;6.766;2023-03-01T08:59:39;21.1;;;15.7;;
64452;SDS011;50813;52.654;6.766;2023-03-01T09:02:55;20.0;;;15.0;;
64452;SDS011;50813;52.654;6.766;2023-03-01T09:04:31;18.0;;;14.5;;
64452;SDS011;50813;52.654;6.766;2023-03-01T09:06:07;17.61;;;13.6;;
64452;SDS011;50813;52.654;6.766;2023-03-01T09:07:44;16.4;;;13.3;;
64452;SDS011;50813;52.654;6.766;2023-03-01T09:10:56;18.11;;;13.7;;
64452;SDS011;50813;52.654;6.766;2023-03-01T09:12:32;18.0;;;12.8;;
64452;SDS011;50813;52.654;6.766;2023-03-01T09:14:09;18.11;;;13.3;;
64452;SDS011;50813;52.654;6.766;2023-03-01T09:17:21;17.3;;;13.3;;
64452;SDS011;50813;52.654;6.766;2023-03-01T09:18:57;14.6;;;12.0;;
64452;SDS011;50813;52.654;6.766;2023-03-01T09:20:33;17.11;;;12.6;;
64452;SDS011;50813;52.654;6.766;2023-03-01T09:23:46;16.9;;;12.8;;
64452;SDS011;50813;52.654;6.766;2023-03-01T09:25:24;16.9;;;12.8;;
64452;SDS011;50813;52.654;6.766;2023-03-01T09:27:00;15.2;;;11.8;;
64452;SDS011;50813;52.654;6.766;2023-03-01T09:28:36;14.6;;;10.9;;
64452;SDS011;50813;52.654;6.766;2023-03-01T09:31:49;11.9;;;10.21;;
64452;SDS011;50813;52.654;6.766;2023-03-01T09:33:26;13.2;;;10.3;;
64452;SDS011;50813;52.654;6.766;2023-03-01T09:35:03;15.6;;;11.0;;
64452;SDS011;50813;52.654;6.766;2023-03-01T09:38:16;14.0;;;10.1;;
64452;SDS011;50813;52.654;6.766;2023-03-01T09:39:52;11.8;;;9.31;;
64452;SDS011;50813;52.654;6.766;2023-03-01T09:41:38;11.8;;;9.31;;
64452;SDS011;50813;52.654;6.766;2023-03-01T09:43:34;12.4;;;10.21;;
64452;SDS011;50813;52.654;6.766;2023-03-01T09:45:27;13.5;;;10.7;;
64452;SDS011;50813;52.654;6.766;2023-03-01T09:48:55;8.5;;;7.4;;
64452;SDS011;50813;52.654;6.766;2023-03-01T09:50:38;7.0;;;5.8;;
64452;SDS011;50813;52.654;6.766;2023-03-01T09:52:20;9.31;;;5.6;;
64452;SDS011;50813;52.654;6.766;2023-03-01T09:54:05;5.2;;;4.5;;
64452;SDS011;50813;52.654;6.766;2023-03-01T09:57:26;6.6;;;4.2;;
64452;SDS011;50813;52.654;6.766;2023-03-01T09:59:09;4.41;;;4.0;;
64452;SDS011;50813;52.654;6.766;2023-03-01T10:00:59;7.3;;;5.0;;
64452;SDS011;50813;52.654;6.766;2023-03-01T10:02:47;6.4;;;4.8;;
64452;SDS011;50813;52.654;6.766;2023-03-01T10:04:28;5.0;;;3.8;;
64452;SDS011;50813;52.654;6.766;2023-03-01T10:06:19;5.11;;;3.8;;
64452;SDS011;50813;52.654;6.766;2023-03-01T10:10:01;6.6;;;3.7;;
64452;SDS011;50813;52.654;6.766;2023-03-01T10:11:41;4.7;;;3.7;;
64452;SDS011;50813;52.654;6.766;2023-03-01T10:13:23;5.9;;;3.9;;
64452;SDS011;50813;52.654;6.766;2023-03-01T10:15:05;6.4;;;4.3;;
64452;SDS011;50813;52.654;6.766;2023-03-01T10:16:48;7.0;;;4.3;;
64452;SDS011;50813;52.654;6.766;2023-03-01T10:20:14;5.5;;;4.3;;
64452;SDS011;50813;52.654;6.766;2023-03-01T10:22:00;5.5;;;4.1;;
64452;SDS011;50813;52.654;6.766;2023-03-01T10:23:45;5.3;;;3.6;;
64452;SDS011;50813;52.654;6.766;2023-03-01T10:25:31;4.7;;;3.3;;
64452;SDS011;50813;52.654;6.766;2023-03-01T10:27:22;4.61;;;3.2;;
64452;SDS011;50813;52.654;6.766;2023-03-01T10:30:40;4.0;;;2.9;;
64452;SDS011;50813;52.654;6.766;2023-03-01T10:32:17;4.2;;;2.7;;
64452;SDS011;50813;52.654;6.766;2023-03-01T10:33:54;5.11;;;3.2;;
64452;SDS011;50813;52.654;6.766;2023-03-01T10:35:32;4.5;;;3.1;;
64452;SDS011;50813;52.654;6.766;2023-03-01T10:38:49;4.2;;;3.3;;
64452;SDS011;50813;52.654;6.766;2023-03-01T10:40:27;3.9;;;3.5;;
64452;SDS011;50813;52.654;6.766;2023-03-01T10:42:05;4.91;;;3.6;;
64452;SDS011;50813;52.654;6.766;2023-03-01T10:43:54;3.8;;;3.4;;
64452;SDS011;50813;52.654;6.766;2023-03-01T10:47:14;4.3;;;3.3;;
64452;SDS011;50813;52.654;6.766;2023-03-01T10:49:05;4.5;;;3.1;;
64452;SDS011;50813;52.654;6.766;2023-03-01T10:51:05;4.7;;;3.1;;
64452;SDS011;50813;52.654;6.766;2023-03-01T10:52:42;4.0;;;3.4;;
64452;SDS011;50813;52.654;6.766;2023-03-01T10:54:34;4.41;;;3.4;;
64452;SDS011;50813;52.654;6.766;2023-03-01T10:57:48;5.5;;;3.1;;
64452;SDS011;50813;52.654;6.766;2023-03-01T10:59:26;4.41;;;3.0;;
64452;SDS011;50813;52.654;6.766;2023-03-01T11:01:24;4.1;;;3.4;;
64452;SDS011;50813;52.654;6.766;2023-03-01T11:03:08;4.61;;;3.5;;
64452;SDS011;50813;52.654;6.766;2023-03-01T11:05:13;5.6;;;3.3;;
64452;SDS011;50813;52.654;6.766;2023-03-01T11:06:58;8.0;;;3.5;;
64452;SDS011;50813;52.654;6.766;2023-03-01T11:10:17;4.8;;;3.5;;
64452;SDS011;50813;52.654;6.766;2023-03-01T11:11:57;5.3;;;3.5;;
64452;SDS011;50813;52.654;6.766;2023-03-01T11:13:36;4.91;;;3.6;;
64452;SDS011;50813;52.654;6.766;2023-03-01T11:15:25;5.4;;;3.3;;
64452;SDS011;50813;52.654;6.766;2023-03-01T11:18:55;5.4;;;4.0;;
64452;SDS011;50813;52.654;6.766;2023-03-01T11:20:33;5.8;;;4.2;;
64452;SDS011;50813;52.654;6.766;2023-03-01T11:22:12;7.4;;;3.9;;
64452;SDS011;50813;52.654;6.766;2023-03-01T11:23:53;6.5;;;4.1;;
64452;SDS011;50813;52.654;6.766;2023-03-01T11:27:15;5.7;;;4.0;;
64452;SDS011;50813;52.654;6.766;2023-03-01T11:29:00;6.1;;;4.2;;
64452;SDS011;50813;52.654;6.766;2023-03-01T11:30:44;9.6;;;4.41;;
64452;SDS011;50813;52.654;6.766;2023-03-01T11:32:28;5.5;;;4.41;;
64452;SDS011;50813;52.654;6.766;2023-03-01T11:34:24;7.0;;;5.5;;
64452;SDS011;50813;52.654;6.766;2023-03-01T11:36:26;8.0;;;5.5;;
64452;SDS011;50813;52.654;6.766;2023-03-01T11:39:59;7.6;;;5.8;;
64452;SDS011;50813;52.654;6.766;2023-03-01T11:41:42;7.7;;;5.8;;
64452;SDS011;50813;52.654;6.766;2023-03-01T11:43:26;8.81;;;5.6;;
64452;SDS011;50813;52.654;6.766;2023-03-01T11:45:10;8.31;;;5.9;;
64452;SDS011;50813;52.654;6.766;2023-03-01T11:46:51;7.5;;;5.8;;
64452;SDS011;50813;52.654;6.766;2023-03-01T11:50:34;9.21;;;5.8;;
64452;SDS011;50813;52.654;6.766;2023-03-01T11:52:18;7.5;;;5.6;;
64452;SDS011;50813;52.654;6.766;2023-03-01T11:54:06;8.31;;;5.6;;
64452;SDS011;50813;52.654;6.766;2023-03-01T11:56:05;8.2;;;5.8;;
64452;SDS011;50813;52.654;6.766;2023-03-01T11:57:58;7.2;;;5.4;;
64452;SDS011;50813;52.654;6.766;2023-03-01T12:00:06;9.5;;;5.8;;
64452;SDS011;50813;52.654;6.766;2023-03-01T12:02:07;7.3;;;5.4;;
64452;SDS011;50813;52.654;6.766;2023-03-01T12:05:06;8.0;;;5.3;;
64452;SDS011;50813;52.654;6.766;2023-03-01T12:07:56;7.9;;;5.6;;
64452;SDS011;50813;52.654;6.766;2023-03-01T12:09:48;7.2;;;5.6;;
64452;SDS011;50813;52.654;6.766;2023-03-01T12:13:44;6.7;;;5.5;;
64452;SDS011;50813;52.654;6.766;2023-03-01T12:15:43;7.3;;;6.0;;
64452;SDS011;50813;52.654;6.766;2023-03-01T12:17:54;7.6;;;5.8;;
64452;SDS011;50813;52.654;6.766;2023-03-01T12:19:54;8.6;;;6.1;;
64452;SDS011;50813;52.654;6.766;2023-03-01T12:23:50;6.9;;;5.5;;
64452;SDS011;50813;52.654;6.766;2023-03-01T12:26:57;6.5;;;5.4;;
64452;SDS011;50813;52.654;6.766;2023-03-01T12:28:55;7.8;;;6.6;;
64452;SDS011;50813;52.654;6.766;2023-03-01T12:31:03;8.6;;;6.8;;
64452;SDS011;50813;52.654;6.766;2023-03-01T12:33:50;10.3;;;7.6;;
64452;SDS011;50813;52.654;6.766;2023-03-01T12:35:36;8.71;;;7.1;;
64452;SDS011;50813;52.654;6.766;2023-03-01T12:37:29;11.1;;;7.0;;
64452;SDS011;50813;52.654;6.766;2023-03-01T12:39:24;7.6;;;6.2;;
64452;SDS011;50813;52.654;6.766;2023-03-01T12:41:21;8.9;;;7.2;;
64452;SDS011;50813;52.654;6.766;2023-03-01T12:43:48;9.21;;;6.4;;
64452;SDS011;50813;52.654;6.766;2023-03-01T12:45:41;7.4;;;5.9;;
64452;SDS011;50813;52.654;6.766;2023-03-01T12:47:35;9.5;;;6.5;;